createdAt,value
2022-08-18T00:01:40.967Z,19.50
2022-08-18T00:05:52.952Z,19.50
2022-08-18T00:09:58.668Z,19.50
2022-08-18T00:14:01.857Z,19.40
2022-08-18T00:18:05.435Z,19.30
2022-08-18T00:22:12.461Z,19.30
2022-08-18T00:26:19.049Z,19.20
2022-08-18T00:30:23.800Z,19.10
2022-08-18T00:34:27.027Z,19.00
2022-08-18T00:38:35.546Z,19.00
2022-08-18T00:42:45.019Z,19.00
2022-08-18T00:46:48.306Z,18.90
2022-08-18T00:50:55.189Z,18.90
2022-08-18T00:54:59.928Z,19.00
2022-08-18T00:59:10.445Z,19.00
2022-08-18T01:03:16.533Z,19.00
2022-08-18T01:07:33.874Z,19.00
2022-08-18T01:11:39.910Z,18.90
2022-08-18T01:15:44.482Z,18.90
2022-08-18T01:20:06.241Z,18.80
2022-08-18T01:24:13.041Z,18.80
2022-08-18T01:28:18.076Z,18.80
2022-08-18T01:32:23.980Z,18.70
2022-08-18T01:36:27.871Z,18.70
2022-08-18T01:41:24.295Z,18.70
2022-08-18T01:44:56.584Z,18.70
2022-08-18T01:49:08.568Z,18.60
2022-08-18T01:53:12.760Z,18.50
2022-08-18T01:57:21.108Z,18.40
2022-08-18T02:01:36.535Z,18.30
2022-08-18T02:05:44.134Z,18.30
2022-08-18T02:09:52.220Z,18.30
2022-08-18T02:13:56.794Z,18.20
2022-08-18T02:18:01.127Z,18.10
2022-08-18T02:22:04.918Z,18.10
2022-08-18T02:26:11.669Z,18.00
2022-08-18T02:30:19.440Z,17.90
2022-08-18T02:34:22.712Z,17.90
2022-08-18T02:38:26.104Z,17.80
2022-08-18T02:42:30.432Z,17.80
2022-08-18T02:46:35.164Z,17.70
2022-08-18T02:50:47.075Z,17.70
2022-08-18T02:54:50.510Z,17.60
2022-08-18T02:58:58.720Z,17.50
2022-08-18T03:03:03.309Z,17.50
2022-08-18T03:07:09.338Z,17.50
2022-08-18T03:11:12.769Z,17.40
2022-08-18T03:15:16.205Z,17.40
2022-08-18T03:19:21.191Z,17.40
2022-08-18T03:23:30.180Z,17.30
2022-08-18T03:27:33.779Z,17.30
2022-08-18T03:31:39.306Z,17.20
2022-08-18T03:35:44.161Z,17.20
2022-08-18T03:39:56.577Z,17.10
2022-08-18T03:44:00.014Z,17.00
2022-08-18T03:48:05.057Z,17.00
2022-08-18T03:52:11.738Z,17.00
2022-08-18T03:56:18.223Z,16.90
2022-08-18T04:00:22.016Z,16.90
2022-08-18T04:04:28.194Z,16.90
2022-08-18T04:08:32.949Z,16.90
2022-08-18T04:12:37.170Z,16.90
2022-08-18T04:16:40.888Z,16.90
2022-08-18T04:20:59.006Z,16.90
2022-08-18T04:25:04.903Z,16.90
2022-08-18T04:29:10.072Z,16.90
2022-08-18T04:33:20.393Z,17.00
2022-08-18T04:37:23.583Z,17.00
2022-08-18T04:41:30.242Z,17.00
2022-08-18T04:45:33.535Z,17.10
2022-08-18T04:49:38.913Z,17.10
2022-08-18T04:53:52.731Z,17.10
2022-08-18T04:57:58.195Z,17.20
2022-08-18T05:02:05.882Z,17.30
2022-08-18T05:06:09.998Z,17.40
2022-08-18T05:10:13.840Z,17.40
2022-08-18T05:14:18.850Z,17.50
2022-08-18T05:18:24.459Z,17.60
2022-08-18T05:22:32.056Z,17.70
2022-08-18T05:26:35.804Z,17.80
2022-08-18T05:30:42.374Z,17.90
2022-08-18T05:34:49.501Z,18.00
2022-08-18T05:39:03.845Z,18.10
2022-08-18T05:43:09.525Z,18.20
2022-08-18T05:47:25.131Z,18.40
2022-08-18T05:51:35.087Z,18.60
2022-08-18T05:56:01.959Z,18.80
2022-08-18T06:00:09.113Z,19.10
2022-08-18T06:04:22.150Z,19.30
2022-08-18T06:08:30.283Z,19.50
2022-08-18T06:12:40.144Z,19.80
2022-08-18T06:16:55.743Z,20.10
2022-08-18T06:21:17.586Z,20.40
2022-08-18T06:25:27.459Z,20.80
2022-08-18T06:29:47.452Z,21.30
2022-08-18T06:33:58.950Z,21.70
2022-08-18T06:38:33.988Z,22.00
2022-08-18T06:42:40.412Z,22.30
2022-08-18T06:46:48.368Z,22.40
2022-08-18T06:50:57.202Z,22.80
2022-08-18T06:55:03.523Z,23.10
2022-08-18T06:59:18.950Z,23.30
2022-08-18T07:03:25.060Z,23.50
2022-08-18T07:07:50.901Z,23.80
2022-08-18T07:12:05.598Z,24.00
2022-08-18T07:16:30.325Z,24.20
2022-08-18T07:20:45.896Z,24.60
2022-08-18T07:24:51.628Z,24.90
2022-08-18T07:28:56.516Z,25.20
2022-08-18T07:33:07.929Z,25.60
2022-08-18T07:37:19.726Z,25.90
2022-08-18T07:41:26.823Z,26.30
2022-08-18T07:45:37.200Z,26.50
2022-08-18T07:50:15.728Z,26.70
2022-08-18T07:54:47.108Z,27.10
2022-08-18T07:58:48.082Z,27.40
2022-08-18T08:03:07.342Z,27.60
2022-08-18T08:07:24.308Z,28.00
2022-08-18T08:11:40.988Z,28.30
2022-08-18T08:15:57.312Z,28.80
2022-08-18T08:20:24.921Z,29.00
2022-08-18T08:24:40.763Z,29.70
2022-08-18T08:28:55.529Z,30.30
2022-08-18T08:33:09.131Z,30.80
2022-08-18T08:37:18.034Z,31.70
2022-08-18T08:41:28.244Z,32.20
2022-08-18T08:45:36.264Z,32.70
2022-08-18T08:49:43.896Z,33.30
2022-08-18T08:53:55.547Z,34.00
2022-08-18T08:58:12.253Z,35.00
2022-08-18T09:02:49.026Z,36.30
2022-08-18T09:06:59.649Z,36.80
2022-08-18T09:11:28.716Z,38.00
2022-08-18T09:15:46.538Z,39.30
2022-08-18T09:20:02.524Z,39.00
2022-08-18T09:24:19.505Z,39.20
2022-08-18T09:28:56.636Z,38.30
2022-08-18T09:38:08.513Z,39.90
2022-08-18T09:42:15.836Z,39.80
2022-08-18T09:46:55.961Z,38.70
2022-08-18T09:51:35.415Z,39.20
2022-08-18T09:56:05.016Z,39.10
2022-08-18T10:05:28.247Z,40.50
2022-08-18T10:09:45.029Z,40.10
2022-08-18T10:13:59.071Z,40.00
2022-08-18T10:18:18.056Z,39.80
2022-08-18T10:27:34.734Z,39.70
2022-08-18T10:32:19.021Z,40.30
2022-08-18T10:36:42.300Z,41.00
2022-08-18T10:40:57.518Z,41.00
2022-08-18T10:45:12.958Z,41.30
2022-08-18T10:49:28.790Z,41.00
2022-08-18T10:53:44.051Z,41.00
2022-08-18T10:58:17.694Z,42.70
2022-08-18T11:02:38.369Z,43.60
2022-08-18T11:06:44.858Z,43.10
2022-08-18T11:11:24.846Z,43.70
2022-08-18T11:15:23.773Z,43.60
2022-08-18T11:19:29.645Z,44.00
2022-08-18T11:23:33.358Z,43.70
2022-08-18T11:27:46.345Z,45.10
2022-08-18T11:31:52.600Z,44.20
2022-08-18T11:36:01.404Z,44.30
2022-08-18T11:40:14.063Z,44.40
2022-08-18T11:44:25.141Z,44.10
2022-08-18T11:48:50.869Z,43.70
2022-08-18T11:52:58.128Z,44.50
2022-08-18T11:57:29.850Z,44.60
2022-08-18T12:01:42.497Z,45.00
2022-08-18T12:05:54.015Z,44.30
2022-08-18T12:10:26.463Z,44.60
2022-08-18T12:14:35.284Z,43.70
2022-08-18T12:18:39.941Z,43.60
2022-08-18T12:22:47.222Z,43.40
2022-08-18T12:26:53.426Z,44.50
2022-08-18T12:30:57.632Z,43.20
2022-08-18T12:35:07.656Z,43.40
2022-08-18T12:39:12.616Z,43.90
2022-08-18T12:43:18.647Z,44.80
2022-08-18T12:47:31.209Z,44.10
2022-08-18T12:51:35.464Z,43.40
2022-08-18T12:55:44.092Z,42.40
2022-08-18T12:59:50.370Z,42.10
2022-08-18T13:04:12.926Z,41.50
2022-08-18T13:08:27.720Z,39.90
2022-08-18T13:12:37.551Z,38.90
2022-08-18T13:16:54.625Z,38.70
2022-08-18T13:20:58.827Z,39.30
2022-08-18T13:25:03.903Z,39.50
2022-08-18T13:29:10.125Z,39.60
2022-08-18T13:33:34.429Z,39.60
2022-08-18T13:37:38.750Z,40.10
2022-08-18T13:41:43.614Z,39.80
2022-08-18T13:45:53.452Z,38.80
2022-08-18T13:50:01.021Z,37.30
2022-08-18T13:54:28.827Z,37.80
2022-08-18T13:58:31.738Z,37.30
2022-08-18T14:02:36.564Z,36.40
2022-08-18T14:06:46.913Z,35.90
2022-08-18T14:10:56.298Z,34.50
2022-08-18T14:14:59.538Z,33.60
2022-08-18T14:19:22.841Z,30.50
2022-08-18T14:23:53.169Z,28.50
2022-08-18T14:27:57.219Z,26.40
2022-08-18T14:32:00.677Z,25.10
2022-08-18T14:36:06.983Z,23.40
2022-08-18T14:40:14.503Z,22.40
2022-08-18T14:44:24.299Z,21.60
2022-08-18T14:48:28.107Z,21.30
2022-08-18T14:52:31.444Z,21.20
2022-08-18T14:56:38.946Z,21.40
2022-08-18T15:00:49.770Z,21.80
2022-08-18T15:04:57.925Z,22.30
2022-08-18T15:09:01.503Z,22.90
2022-08-18T15:13:08.536Z,23.40
2022-08-18T15:17:13.452Z,23.80
2022-08-18T15:21:38.779Z,24.10
2022-08-18T15:25:45.988Z,24.30
2022-08-18T15:29:50.826Z,24.50
2022-08-18T15:33:54.580Z,24.70
2022-08-18T15:38:05.017Z,24.70
2022-08-18T15:42:12.983Z,24.60
2022-08-18T15:46:18.572Z,24.60
2022-08-18T15:50:25.955Z,24.60
2022-08-18T15:54:29.508Z,24.70
2022-08-18T15:58:33.244Z,24.80
2022-08-18T16:02:39.298Z,24.90
2022-08-18T16:06:45.253Z,24.70
2022-08-18T16:10:49.633Z,24.70
2022-08-18T16:14:53.291Z,24.70
2022-08-18T16:18:58.473Z,24.60
2022-08-18T16:23:02.015Z,24.60
2022-08-18T16:27:06.639Z,24.50
2022-08-18T16:31:10.331Z,24.30
2022-08-18T16:35:15.434Z,23.90
2022-08-18T16:39:18.750Z,23.70
2022-08-18T16:43:23.577Z,23.60
2022-08-18T16:47:27.334Z,23.50
2022-08-18T16:51:32.300Z,23.30
2022-08-18T16:55:35.513Z,23.20
2022-08-18T16:59:57.048Z,23.10
2022-08-18T17:04:14.703Z,23.10
2022-08-18T17:08:25.497Z,22.90
2022-08-18T17:12:29.522Z,22.60
2022-08-18T17:16:32.751Z,22.40
2022-08-18T17:20:37.108Z,22.20
2022-08-18T17:24:45.135Z,22.10
2022-08-18T17:28:59.618Z,22.10
2022-08-18T17:33:10.145Z,22.00
2022-08-18T17:37:18.553Z,22.00
2022-08-18T17:41:25.375Z,21.80
2022-08-18T17:45:36.085Z,21.80
2022-08-18T17:50:27.346Z,21.60
2022-08-18T17:54:36.553Z,21.40
2022-08-18T17:58:51.592Z,21.20
2022-08-18T18:02:54.912Z,20.90
2022-08-18T18:06:59.024Z,20.80
2022-08-18T18:11:14.019Z,20.70
2022-08-18T18:15:32.828Z,20.60
2022-08-18T18:40:11.755Z,20.40
2022-08-18T18:44:16.400Z,20.40
2022-08-18T18:48:45.287Z,20.30
2022-08-18T18:53:15.881Z,20.10
2022-08-18T18:57:41.036Z,20.00
2022-08-18T19:01:59.528Z,19.90
2022-08-18T19:06:20.497Z,19.80
2022-08-18T19:10:29.351Z,19.70
2022-08-18T19:14:40.134Z,19.60
2022-08-18T19:19:35.920Z,19.60
2022-08-18T19:23:44.943Z,19.50
2022-08-18T19:28:02.903Z,19.30
2022-08-18T19:32:16.918Z,19.30
2022-08-18T19:36:35.261Z,19.30
2022-08-18T19:40:49.702Z,19.30
2022-08-18T19:45:18.303Z,19.30
2022-08-18T19:49:41.742Z,19.30
2022-08-18T19:54:14.645Z,19.30
2022-08-18T19:59:15.142Z,19.20
2022-08-18T20:03:43.018Z,19.10
2022-08-18T20:08:26.041Z,19.00
2022-08-18T20:12:56.721Z,18.90
2022-08-18T20:17:16.891Z,18.80
2022-08-18T20:21:39.906Z,18.70
2022-08-18T20:25:48.989Z,18.60
2022-08-18T20:30:17.556Z,18.60
2022-08-18T20:34:22.761Z,18.50
2022-08-18T20:38:35.383Z,18.50
2022-08-18T20:42:56.458Z,18.30
2022-08-18T20:47:27.002Z,18.30
2022-08-18T20:51:34.155Z,18.20
2022-08-18T20:55:49.154Z,18.20
2022-08-18T21:00:04.975Z,18.10
2022-08-18T21:04:08.311Z,18.00
2022-08-18T21:08:26.487Z,17.90
2022-08-18T21:12:32.924Z,17.90
2022-08-18T21:16:40.760Z,17.90
2022-08-18T21:20:44.074Z,17.90
2022-08-18T21:24:50.588Z,17.90
2022-08-18T21:28:58.504Z,17.80
2022-08-18T21:33:20.174Z,17.80
2022-08-18T21:37:23.538Z,17.80
2022-08-18T21:41:31.280Z,17.80
2022-08-18T21:45:47.295Z,17.70
2022-08-18T21:50:18.137Z,17.70
2022-08-18T21:54:25.274Z,17.60
2022-08-18T21:58:38.994Z,17.60
2022-08-18T22:02:42.692Z,17.60
2022-08-18T22:06:52.633Z,17.80
2022-08-18T22:12:01.512Z,18.00
2022-08-18T22:16:24.704Z,18.20
2022-08-18T22:20:37.098Z,18.30
2022-08-18T22:24:42.223Z,18.20
2022-08-18T22:28:57.717Z,18.00
2022-08-18T22:33:01.085Z,17.90
2022-08-18T22:37:09.462Z,17.80
2022-08-18T22:41:15.769Z,17.70
2022-08-18T22:45:20.689Z,17.60
2022-08-18T22:49:24.697Z,17.60
2022-08-18T22:53:28.816Z,17.40
2022-08-18T22:57:35.472Z,17.40
2022-08-18T23:01:43.495Z,17.40
2022-08-18T23:05:47.618Z,17.40
2022-08-18T23:09:51.296Z,17.30
2022-08-18T23:13:56.641Z,17.20
2022-08-18T23:17:59.843Z,17.20
2022-08-18T23:22:04.891Z,17.20
2022-08-18T23:26:09.609Z,17.10
2022-08-18T23:30:14.565Z,17.10
2022-08-18T23:34:19.527Z,17.00
2022-08-18T23:38:23.848Z,17.00
2022-08-18T23:42:35.074Z,17.00
2022-08-18T23:46:39.846Z,17.00
2022-08-18T23:50:45.419Z,16.90
2022-08-18T23:54:48.923Z,16.90
2022-08-18T23:58:56.372Z,16.80
